sensor_id;sensor_type;location;lat;lon;timestamp;P1;durP1;ratioP1;P2;durP2;ratioP2
37459;SDS011;23318;50.966;5.284;2023-04-19T00:00:18;29.05;;;21.23;;
37459;SDS011;23318;50.966;5.284;2023-04-19T00:02:45;26.40;;;21.42;;
37459;SDS011;23318;50.966;5.284;2023-04-19T00:05:13;25.55;;;21.08;;
37459;SDS011;23318;50.966;5.284;2023-04-19T00:07:39;29.50;;;21.50;;
37459;SDS011;23318;50.966;5.284;2023-04-19T00:10:05;28.27;;;21.30;;
37459;SDS011;23318;50.966;5.284;2023-04-19T00:12:31;25.55;;;20.45;;
37459;SDS011;23318;50.966;5.284;2023-04-19T00:14:57;29.63;;;21.65;;
37459;SDS011;23318;50.966;5.284;2023-04-19T00:17:23;26.98;;;21.02;;
37459;SDS011;23318;50.966;5.284;2023-04-19T00:19:48;27.05;;;20.45;;
37459;SDS011;23318;50.966;5.284;2023-04-19T00:22:14;27.38;;;21.13;;
37459;SDS011;23318;50.966;5.284;2023-04-19T00:24:41;26.27;;;20.55;;
37459;SDS011;23318;50.966;5.284;2023-04-19T00:27:06;25.98;;;20.85;;
37459;SDS011;23318;50.966;5.284;2023-04-19T00:29:32;28.95;;;21.23;;
37459;SDS011;23318;50.966;5.284;2023-04-19T00:31:58;25.45;;;20.52;;
37459;SDS011;23318;50.966;5.284;2023-04-19T00:34:24;26.90;;;21.48;;
37459;SDS011;23318;50.966;5.284;2023-04-19T00:36:50;26.25;;;20.80;;
37459;SDS011;23318;50.966;5.284;2023-04-19T00:39:15;29.85;;;22.08;;
37459;SDS011;23318;50.966;5.284;2023-04-19T00:41:41;23.90;;;20.42;;
37459;SDS011;23318;50.966;5.284;2023-04-19T00:44:07;26.73;;;20.60;;
37459;SDS011;23318;50.966;5.284;2023-04-19T00:46:35;24.83;;;20.15;;
37459;SDS011;23318;50.966;5.284;2023-04-19T00:49:01;24.30;;;19.33;;
37459;SDS011;23318;50.966;5.284;2023-04-19T00:51:27;26.25;;;20.45;;
37459;SDS011;23318;50.966;5.284;2023-04-19T00:53:53;26.08;;;20.02;;
37459;SDS011;23318;50.966;5.284;2023-04-19T00:56:20;25.15;;;20.35;;
37459;SDS011;23318;50.966;5.284;2023-04-19T00:58:48;24.60;;;19.83;;
37459;SDS011;23318;50.966;5.284;2023-04-19T01:01:13;23.73;;;18.50;;
37459;SDS011;23318;50.966;5.284;2023-04-19T01:03:39;26.08;;;18.70;;
37459;SDS011;23318;50.966;5.284;2023-04-19T01:06:05;24.65;;;20.08;;
37459;SDS011;23318;50.966;5.284;2023-04-19T01:08:31;22.67;;;18.77;;
37459;SDS011;23318;50.966;5.284;2023-04-19T01:10:56;23.80;;;18.95;;
37459;SDS011;23318;50.966;5.284;2023-04-19T01:13:22;22.13;;;18.23;;
37459;SDS011;23318;50.966;5.284;2023-04-19T01:15:48;22.02;;;18.55;;
37459;SDS011;23318;50.966;5.284;2023-04-19T01:18:15;24.80;;;19.45;;
37459;SDS011;23318;50.966;5.284;2023-04-19T01:20:41;23.55;;;18.88;;
37459;SDS011;23318;50.966;5.284;2023-04-19T01:23:07;23.55;;;18.48;;
37459;SDS011;23318;50.966;5.284;2023-04-19T01:25:35;27.23;;;19.65;;
37459;SDS011;23318;50.966;5.284;2023-04-19T01:28:01;26.45;;;18.98;;
37459;SDS011;23318;50.966;5.284;2023-04-19T01:30:27;23.80;;;19.25;;
37459;SDS011;23318;50.966;5.284;2023-04-19T01:32:52;23.23;;;18.90;;
37459;SDS011;23318;50.966;5.284;2023-04-19T01:35:18;22.35;;;18.67;;
37459;SDS011;23318;50.966;5.284;2023-04-19T01:37:45;21.58;;;18.27;;
37459;SDS011;23318;50.966;5.284;2023-04-19T01:40:11;32.67;;;19.05;;
37459;SDS011;23318;50.966;5.284;2023-04-19T01:42:37;24.73;;;19.55;;
37459;SDS011;23318;50.966;5.284;2023-04-19T01:45:02;26.17;;;19.30;;
37459;SDS011;23318;50.966;5.284;2023-04-19T01:47:28;22.77;;;19.15;;
37459;SDS011;23318;50.966;5.284;2023-04-19T01:49:54;23.65;;;17.70;;
37459;SDS011;23318;50.966;5.284;2023-04-19T01:52:20;20.70;;;17.80;;
37459;SDS011;23318;50.966;5.284;2023-04-19T01:54:45;21.55;;;17.88;;
37459;SDS011;23318;50.966;5.284;2023-04-19T01:57:11;23.08;;;18.35;;
37459;SDS011;23318;50.966;5.284;2023-04-19T01:59:37;22.70;;;18.15;;
37459;SDS011;23318;50.966;5.284;2023-04-19T02:02:05;20.33;;;17.30;;
37459;SDS011;23318;50.966;5.284;2023-04-19T02:04:32;22.58;;;18.20;;
37459;SDS011;23318;50.966;5.284;2023-04-19T02:06:58;23.25;;;17.63;;
37459;SDS011;23318;50.966;5.284;2023-04-19T02:09:24;23.08;;;17.30;;
37459;SDS011;23318;50.966;5.284;2023-04-19T02:11:50;22.98;;;17.25;;
37459;SDS011;23318;50.966;5.284;2023-04-19T02:14:15;23.92;;;17.73;;
37459;SDS011;23318;50.966;5.284;2023-04-19T02:16:41;21.80;;;17.10;;
37459;SDS011;23318;50.966;5.284;2023-04-19T02:19:07;22.15;;;16.60;;
37459;SDS011;23318;50.966;5.284;2023-04-19T02:21:33;23.95;;;18.65;;
37459;SDS011;23318;50.966;5.284;2023-04-19T02:23:59;27.63;;;18.52;;
37459;SDS011;23318;50.966;5.284;2023-04-19T02:26:25;21.08;;;17.42;;
37459;SDS011;23318;50.966;5.284;2023-04-19T02:28:51;22.70;;;17.15;;
37459;SDS011;23318;50.966;5.284;2023-04-19T02:31:17;21.67;;;16.10;;
37459;SDS011;23318;50.966;5.284;2023-04-19T02:33:42;20.13;;;16.08;;
37459;SDS011;23318;50.966;5.284;2023-04-19T02:36:10;23.73;;;17.30;;
37459;SDS011;23318;50.966;5.284;2023-04-19T02:38:36;21.88;;;17.02;;
37459;SDS011;23318;50.966;5.284;2023-04-19T02:41:02;23.65;;;16.35;;
37459;SDS011;23318;50.966;5.284;2023-04-19T02:43:30;21.45;;;15.73;;
37459;SDS011;23318;50.966;5.284;2023-04-19T02:45:55;19.10;;;16.25;;
37459;SDS011;23318;50.966;5.284;2023-04-19T02:48:21;19.55;;;16.33;;
37459;SDS011;23318;50.966;5.284;2023-04-19T02:50:47;20.17;;;16.67;;
37459;SDS011;23318;50.966;5.284;2023-04-19T02:53:12;21.65;;;15.93;;
37459;SDS011;23318;50.966;5.284;2023-04-19T02:55:38;20.35;;;16.45;;
37459;SDS011;23318;50.966;5.284;2023-04-19T02:58:04;21.77;;;16.38;;
37459;SDS011;23318;50.966;5.284;2023-04-19T03:00:30;18.35;;;15.43;;
37459;SDS011;23318;50.966;5.284;2023-04-19T03:02:56;20.00;;;16.08;;
37459;SDS011;23318;50.966;5.284;2023-04-19T03:05:22;20.98;;;15.68;;
37459;SDS011;23318;50.966;5.284;2023-04-19T03:07:47;22.52;;;15.75;;
37459;SDS011;23318;50.966;5.284;2023-04-19T03:10:13;22.70;;;15.98;;
37459;SDS011;23318;50.966;5.284;2023-04-19T03:12:39;23.83;;;16.30;;
37459;SDS011;23318;50.966;5.284;2023-04-19T03:15:05;22.42;;;16.88;;
37459;SDS011;23318;50.966;5.284;2023-04-19T03:17:32;21.45;;;16.58;;
37459;SDS011;23318;50.966;5.284;2023-04-19T03:19:57;21.02;;;16.10;;
37459;SDS011;23318;50.966;5.284;2023-04-19T03:22:23;19.70;;;15.77;;
37459;SDS011;23318;50.966;5.284;2023-04-19T03:24:49;24.02;;;16.58;;
37459;SDS011;23318;50.966;5.284;2023-04-19T03:27:14;21.80;;;16.60;;
37459;SDS011;23318;50.966;5.284;2023-04-19T03:29:40;22.75;;;17.50;;
37459;SDS011;23318;50.966;5.284;2023-04-19T03:32:06;23.08;;;16.48;;
37459;SDS011;23318;50.966;5.284;2023-04-19T03:34:32;27.17;;;18.52;;
37459;SDS011;23318;50.966;5.284;2023-04-19T03:36:57;26.73;;;18.30;;
37459;SDS011;23318;50.966;5.284;2023-04-19T03:39:23;25.42;;;18.55;;
37459;SDS011;23318;50.966;5.284;2023-04-19T03:41:48;25.85;;;18.83;;
37459;SDS011;23318;50.966;5.284;2023-04-19T03:44:15;30.10;;;19.65;;
37459;SDS011;23318;50.966;5.284;2023-04-19T03:46:41;27.52;;;19.33;;
37459;SDS011;23318;50.966;5.284;2023-04-19T03:49:06;23.85;;;18.50;;
37459;SDS011;23318;50.966;5.284;2023-04-19T03:51:32;28.50;;;19.88;;
37459;SDS011;23318;50.966;5.284;2023-04-19T03:53:58;30.73;;;22.13;;
37459;SDS011;23318;50.966;5.284;2023-04-19T03:56:24;32.55;;;23.48;;
37459;SDS011;23318;50.966;5.284;2023-04-19T03:58:50;31.50;;;22.65;;
37459;SDS011;23318;50.966;5.284;2023-04-19T04:01:17;32.60;;;22.92;;
37459;SDS011;23318;50.966;5.284;2023-04-19T04:03:43;36.33;;;23.60;;
37459;SDS011;23318;50.966;5.284;2023-04-19T04:06:09;36.33;;;23.58;;
37459;SDS011;23318;50.966;5.284;2023-04-19T04:08:35;37.05;;;24.25;;
37459;SDS011;23318;50.966;5.284;2023-04-19T04:11:00;40.60;;;24.58;;
37459;SDS011;23318;50.966;5.284;2023-04-19T04:13:26;36.90;;;25.60;;
37459;SDS011;23318;50.966;5.284;2023-04-19T04:15:52;35.53;;;24.75;;
37459;SDS011;23318;50.966;5.284;2023-04-19T04:18:17;36.47;;;24.73;;
37459;SDS011;23318;50.966;5.284;2023-04-19T04:20:43;37.28;;;24.98;;
37459;SDS011;23318;50.966;5.284;2023-04-19T04:23:09;35.28;;;24.67;;
37459;SDS011;23318;50.966;5.284;2023-04-19T04:25:35;38.13;;;25.20;;
37459;SDS011;23318;50.966;5.284;2023-04-19T04:28:04;37.72;;;25.23;;
37459;SDS011;23318;50.966;5.284;2023-04-19T04:30:31;38.83;;;26.10;;
37459;SDS011;23318;50.966;5.284;2023-04-19T04:32:58;39.72;;;25.20;;
37459;SDS011;23318;50.966;5.284;2023-04-19T04:35:24;37.83;;;26.27;;
37459;SDS011;23318;50.966;5.284;2023-04-19T04:37:50;37.42;;;25.13;;
37459;SDS011;23318;50.966;5.284;2023-04-19T04:40:17;36.78;;;25.55;;
37459;SDS011;23318;50.966;5.284;2023-04-19T04:42:43;35.22;;;25.20;;
37459;SDS011;23318;50.966;5.284;2023-04-19T04:45:09;36.83;;;25.92;;
37459;SDS011;23318;50.966;5.284;2023-04-19T04:47:35;38.20;;;25.63;;
37459;SDS011;23318;50.966;5.284;2023-04-19T04:50:02;38.00;;;26.70;;
37459;SDS011;23318;50.966;5.284;2023-04-19T04:52:28;35.58;;;25.75;;
37459;SDS011;23318;50.966;5.284;2023-04-19T04:54:54;42.25;;;26.35;;
37459;SDS011;23318;50.966;5.284;2023-04-19T04:57:20;34.45;;;24.75;;
37459;SDS011;23318;50.966;5.284;2023-04-19T04:59:45;35.72;;;25.38;;
37459;SDS011;23318;50.966;5.284;2023-04-19T05:02:12;32.45;;;24.23;;
37459;SDS011;23318;50.966;5.284;2023-04-19T05:04:38;38.72;;;26.08;;
37459;SDS011;23318;50.966;5.284;2023-04-19T05:07:04;38.33;;;25.90;;
37459;SDS011;23318;50.966;5.284;2023-04-19T05:09:30;33.20;;;24.55;;
37459;SDS011;23318;50.966;5.284;2023-04-19T05:11:56;35.67;;;25.48;;
37459;SDS011;23318;50.966;5.284;2023-04-19T05:14:21;41.15;;;24.85;;
37459;SDS011;23318;50.966;5.284;2023-04-19T05:16:47;35.95;;;24.88;;
37459;SDS011;23318;50.966;5.284;2023-04-19T05:19:13;36.28;;;24.15;;
37459;SDS011;23318;50.966;5.284;2023-04-19T05:21:38;39.20;;;24.67;;
37459;SDS011;23318;50.966;5.284;2023-04-19T05:24:04;36.38;;;24.60;;
37459;SDS011;23318;50.966;5.284;2023-04-19T05:26:30;33.38;;;24.40;;
37459;SDS011;23318;50.966;5.284;2023-04-19T05:28:56;30.40;;;23.17;;
37459;SDS011;23318;50.966;5.284;2023-04-19T05:31:22;35.85;;;24.85;;
37459;SDS011;23318;50.966;5.284;2023-04-19T05:33:47;32.80;;;23.27;;
37459;SDS011;23318;50.966;5.284;2023-04-19T05:36:13;33.22;;;23.95;;
37459;SDS011;23318;50.966;5.284;2023-04-19T05:38:39;31.23;;;23.35;;
37459;SDS011;23318;50.966;5.284;2023-04-19T05:41:04;39.60;;;22.95;;
37459;SDS011;23318;50.966;5.284;2023-04-19T05:43:30;34.08;;;22.63;;
37459;SDS011;23318;50.966;5.284;2023-04-19T05:45:56;30.77;;;21.02;;
37459;SDS011;23318;50.966;5.284;2023-04-19T05:48:22;33.83;;;22.38;;
37459;SDS011;23318;50.966;5.284;2023-04-19T05:50:49;33.55;;;21.38;;
37459;SDS011;23318;50.966;5.284;2023-04-19T05:53:16;31.63;;;22.33;;
37459;SDS011;23318;50.966;5.284;2023-04-19T05:55:42;32.15;;;22.73;;
37459;SDS011;23318;50.966;5.284;2023-04-19T05:58:09;30.55;;;21.85;;
37459;SDS011;23318;50.966;5.284;2023-04-19T06:00:35;33.15;;;21.92;;
37459;SDS011;23318;50.966;5.284;2023-04-19T06:03:02;32.45;;;20.60;;
37459;SDS011;23318;50.966;5.284;2023-04-19T06:05:27;32.83;;;21.17;;
37459;SDS011;23318;50.966;5.284;2023-04-19T06:07:53;27.52;;;19.85;;
37459;SDS011;23318;50.966;5.284;2023-04-19T06:10:20;32.45;;;20.63;;
37459;SDS011;23318;50.966;5.284;2023-04-19T06:12:47;31.38;;;20.23;;
37459;SDS011;23318;50.966;5.284;2023-04-19T06:15:13;23.85;;;19.25;;
37459;SDS011;23318;50.966;5.284;2023-04-19T06:17:41;26.25;;;19.00;;
37459;SDS011;23318;50.966;5.284;2023-04-19T06:20:07;29.48;;;19.67;;
37459;SDS011;23318;50.966;5.284;2023-04-19T06:22:34;30.10;;;19.38;;
37459;SDS011;23318;50.966;5.284;2023-04-19T06:25:00;31.70;;;19.50;;
37459;SDS011;23318;50.966;5.284;2023-04-19T06:27:26;32.58;;;19.45;;
37459;SDS011;23318;50.966;5.284;2023-04-19T06:29:52;28.08;;;18.15;;
37459;SDS011;23318;50.966;5.284;2023-04-19T06:32:17;29.40;;;19.05;;
37459;SDS011;23318;50.966;5.284;2023-04-19T06:34:43;29.60;;;18.48;;
37459;SDS011;23318;50.966;5.284;2023-04-19T06:37:09;26.00;;;16.90;;
37459;SDS011;23318;50.966;5.284;2023-04-19T06:39:34;27.50;;;17.10;;
37459;SDS011;23318;50.966;5.284;2023-04-19T06:42:00;25.13;;;16.48;;
37459;SDS011;23318;50.966;5.284;2023-04-19T06:44:26;27.20;;;17.30;;
37459;SDS011;23318;50.966;5.284;2023-04-19T06:46:52;23.65;;;15.68;;
37459;SDS011;23318;50.966;5.284;2023-04-19T06:49:17;25.35;;;16.27;;
37459;SDS011;23318;50.966;5.284;2023-04-19T06:51:43;21.80;;;15.60;;
37459;SDS011;23318;50.966;5.284;2023-04-19T06:54:09;24.05;;;15.38;;
37459;SDS011;23318;50.966;5.284;2023-04-19T06:56:41;22.45;;;15.05;;
37459;SDS011;23318;50.966;5.284;2023-04-19T06:59:15;21.50;;;14.38;;
37459;SDS011;23318;50.966;5.284;2023-04-19T07:01:45;17.88;;;14.35;;
37459;SDS011;23318;50.966;5.284;2023-04-19T07:04:12;19.83;;;13.48;;
37459;SDS011;23318;50.966;5.284;2023-04-19T07:06:38;19.75;;;13.13;;
37459;SDS011;23318;50.966;5.284;2023-04-19T07:09:04;18.65;;;13.60;;
37459;SDS011;23318;50.966;5.284;2023-04-19T07:11:31;19.23;;;12.13;;
37459;SDS011;23318;50.966;5.284;2023-04-19T07:13:57;20.88;;;13.27;;
37459;SDS011;23318;50.966;5.284;2023-04-19T07:16:26;18.45;;;13.30;;
37459;SDS011;23318;50.966;5.284;2023-04-19T07:18:52;15.43;;;12.90;;
37459;SDS011;23318;50.966;5.284;2023-04-19T07:21:18;20.38;;;13.00;;
37459;SDS011;23318;50.966;5.284;2023-04-19T07:23:43;16.20;;;11.95;;
37459;SDS011;23318;50.966;5.284;2023-04-19T07:26:09;17.98;;;12.85;;
37459;SDS011;23318;50.966;5.284;2023-04-19T07:28:35;22.55;;;13.65;;
37459;SDS011;23318;50.966;5.284;2023-04-19T07:31:00;22.77;;;14.05;;
37459;SDS011;23318;50.966;5.284;2023-04-19T07:33:26;17.52;;;12.90;;
37459;SDS011;23318;50.966;5.284;2023-04-19T07:35:52;18.55;;;12.38;;
37459;SDS011;23318;50.966;5.284;2023-04-19T07:38:18;18.10;;;12.07;;
37459;SDS011;23318;50.966;5.284;2023-04-19T07:40:44;18.70;;;11.60;;
37459;SDS011;23318;50.966;5.284;2023-04-19T07:43:10;18.23;;;10.40;;
37459;SDS011;23318;50.966;5.284;2023-04-19T07:45:36;18.40;;;11.13;;
37459;SDS011;23318;50.966;5.284;2023-04-19T07:48:02;16.13;;;10.52;;
37459;SDS011;23318;50.966;5.284;2023-04-19T07:50:28;14.70;;;10.55;;
37459;SDS011;23318;50.966;5.284;2023-04-19T07:52:54;13.93;;;10.65;;
37459;SDS011;23318;50.966;5.284;2023-04-19T07:55:20;19.63;;;10.35;;
37459;SDS011;23318;50.966;5.284;2023-04-19T07:57:46;12.65;;;9.85;;
37459;SDS011;23318;50.966;5.284;2023-04-19T08:00:16;17.55;;;10.40;;
37459;SDS011;23318;50.966;5.284;2023-04-19T08:02:43;24.52;;;11.73;;
37459;SDS011;23318;50.966;5.284;2023-04-19T08:05:10;15.23;;;9.63;;
37459;SDS011;23318;50.966;5.284;2023-04-19T08:07:36;14.48;;;8.68;;
37459;SDS011;23318;50.966;5.284;2023-04-19T08:10:03;11.55;;;8.00;;
37459;SDS011;23318;50.966;5.284;2023-04-19T08:12:30;16.17;;;8.85;;
37459;SDS011;23318;50.966;5.284;2023-04-19T08:14:56;11.75;;;8.25;;
37459;SDS011;23318;50.966;5.284;2023-04-19T08:17:21;11.85;;;7.93;;
37459;SDS011;23318;50.966;5.284;2023-04-19T08:19:48;14.40;;;7.75;;
37459;SDS011;23318;50.966;5.284;2023-04-19T08:22:14;9.98;;;7.32;;
37459;SDS011;23318;50.966;5.284;2023-04-19T08:24:42;16.25;;;8.27;;
37459;SDS011;23318;50.966;5.284;2023-04-19T08:27:11;11.57;;;6.90;;
37459;SDS011;23318;50.966;5.284;2023-04-19T08:29:36;11.07;;;7.18;;
37459;SDS011;23318;50.966;5.284;2023-04-19T08:32:03;11.48;;;6.82;;
37459;SDS011;23318;50.966;5.284;2023-04-19T08:34:29;11.00;;;6.82;;
37459;SDS011;23318;50.966;5.284;2023-04-19T08:36:55;16.58;;;7.47;;
37459;SDS011;23318;50.966;5.284;2023-04-19T08:39:21;8.85;;;7.18;;
37459;SDS011;23318;50.966;5.284;2023-04-19T08:41:47;12.15;;;6.70;;
37459;SDS011;23318;50.966;5.284;2023-04-19T08:44:14;9.02;;;6.43;;
37459;SDS011;23318;50.966;5.284;2023-04-19T08:46:41;7.78;;;6.38;;
37459;SDS011;23318;50.966;5.284;2023-04-19T08:49:08;11.13;;;6.38;;
37459;SDS011;23318;50.966;5.284;2023-04-19T08:51:34;13.23;;;6.70;;
37459;SDS011;23318;50.966;5.284;2023-04-19T08:54:05;12.20;;;7.05;;
37459;SDS011;23318;50.966;5.284;2023-04-19T08:56:31;8.55;;;6.55;;
37459;SDS011;23318;50.966;5.284;2023-04-19T08:58:57;9.00;;;6.07;;
37459;SDS011;23318;50.966;5.284;2023-04-19T09:01:23;11.75;;;6.63;;
37459;SDS011;23318;50.966;5.284;2023-04-19T09:03:48;10.40;;;6.43;;
37459;SDS011;23318;50.966;5.284;2023-04-19T09:06:14;11.00;;;6.85;;
37459;SDS011;23318;50.966;5.284;2023-04-19T09:08:41;11.30;;;7.30;;
37459;SDS011;23318;50.966;5.284;2023-04-19T09:11:06;9.38;;;7.20;;
37459;SDS011;23318;50.966;5.284;2023-04-19T09:13:32;8.45;;;6.55;;
37459;SDS011;23318;50.966;5.284;2023-04-19T09:16:02;12.15;;;8.10;;
37459;SDS011;23318;50.966;5.284;2023-04-19T09:18:28;16.00;;;8.18;;
37459;SDS011;23318;50.966;5.284;2023-04-19T09:20:54;11.90;;;7.15;;
37459;SDS011;23318;50.966;5.284;2023-04-19T09:23:25;13.25;;;7.95;;
37459;SDS011;23318;50.966;5.284;2023-04-19T09:28:28;13.23;;;7.60;;
37459;SDS011;23318;50.966;5.284;2023-04-19T09:30:54;12.38;;;7.60;;
37459;SDS011;23318;50.966;5.284;2023-04-19T09:33:31;12.13;;;8.00;;
37459;SDS011;23318;50.966;5.284;2023-04-19T09:36:03;9.43;;;7.25;;
37459;SDS011;23318;50.966;5.284;2023-04-19T09:38:34;12.70;;;7.28;;
37459;SDS011;23318;50.966;5.284;2023-04-19T09:41:11;11.40;;;7.57;;
37459;SDS011;23318;50.966;5.284;2023-04-19T09:43:37;9.98;;;7.80;;
37459;SDS011;23318;50.966;5.284;2023-04-19T09:46:03;19.35;;;8.13;;
37459;SDS011;23318;50.966;5.284;2023-04-19T09:48:28;13.80;;;8.13;;
37459;SDS011;23318;50.966;5.284;2023-04-19T09:50:55;12.57;;;8.23;;
37459;SDS011;23318;50.966;5.284;2023-04-19T09:53:22;14.32;;;7.43;;
37459;SDS011;23318;50.966;5.284;2023-04-19T09:55:49;16.52;;;8.05;;
37459;SDS011;23318;50.966;5.284;2023-04-19T09:58:16;9.07;;;7.82;;
37459;SDS011;23318;50.966;5.284;2023-04-19T10:00:43;11.38;;;7.82;;
37459;SDS011;23318;50.966;5.284;2023-04-19T10:03:11;11.05;;;7.65;;
37459;SDS011;23318;50.966;5.284;2023-04-19T10:05:42;12.18;;;7.85;;
37459;SDS011;23318;50.966;5.284;2023-04-19T10:08:08;14.07;;;7.30;;
37459;SDS011;23318;50.966;5.284;2023-04-19T10:10:35;11.35;;;6.70;;
37459;SDS011;23318;50.966;5.284;2023-04-19T10:13:03;10.82;;;6.10;;
37459;SDS011;23318;50.966;5.284;2023-04-19T10:15:33;15.25;;;6.35;;
37459;SDS011;23318;50.966;5.284;2023-04-19T10:18:01;11.07;;;6.40;;
37459;SDS011;23318;50.966;5.284;2023-04-19T10:20:48;9.18;;;6.45;;
37459;SDS011;23318;50.966;5.284;2023-04-19T10:23:19;8.43;;;6.38;;
37459;SDS011;23318;50.966;5.284;2023-04-19T10:25:46;9.10;;;6.38;;
37459;SDS011;23318;50.966;5.284;2023-04-19T10:28:14;8.38;;;6.13;;
37459;SDS011;23318;50.966;5.284;2023-04-19T10:30:57;8.65;;;6.20;;
37459;SDS011;23318;50.966;5.284;2023-04-19T10:33:29;8.95;;;5.85;;
37459;SDS011;23318;50.966;5.284;2023-04-19T10:35:59;11.20;;;5.20;;
37459;SDS011;23318;50.966;5.284;2023-04-19T10:38:38;8.77;;;5.72;;
37459;SDS011;23318;50.966;5.284;2023-04-19T10:41:16;9.73;;;5.82;;
37459;SDS011;23318;50.966;5.284;2023-04-19T10:43:44;15.57;;;5.80;;
37459;SDS011;23318;50.966;5.284;2023-04-19T10:49:01;11.20;;;4.90;;
37459;SDS011;23318;50.966;5.284;2023-04-19T10:51:31;11.48;;;5.55;;
37459;SDS011;23318;50.966;5.284;2023-04-19T11:01:45;11.82;;;4.40;;
37459;SDS011;23318;50.966;5.284;2023-04-19T11:04:13;8.00;;;4.70;;
37459;SDS011;23318;50.966;5.284;2023-04-19T11:09:36;9.45;;;4.43;;
37459;SDS011;23318;50.966;5.284;2023-04-19T11:12:04;8.82;;;4.95;;
37459;SDS011;23318;50.966;5.284;2023-04-19T11:14:36;6.32;;;3.75;;
37459;SDS011;23318;50.966;5.284;2023-04-19T11:22:28;7.85;;;3.47;;
37459;SDS011;23318;50.966;5.284;2023-04-19T11:25:31;6.93;;;3.03;;
37459;SDS011;23318;50.966;5.284;2023-04-19T11:27:51;9.52;;;2.67;;
37459;SDS011;23318;50.966;5.284;2023-04-19T11:30:18;8.40;;;3.38;;
37459;SDS011;23318;50.966;5.284;2023-04-19T11:32:46;11.73;;;3.17;;
37459;SDS011;23318;50.966;5.284;2023-04-19T11:35:14;4.85;;;2.80;;
37459;SDS011;23318;50.966;5.284;2023-04-19T11:37:43;4.50;;;3.17;;
37459;SDS011;23318;50.966;5.284;2023-04-19T11:40:13;8.45;;;3.72;;
37459;SDS011;23318;50.966;5.284;2023-04-19T11:42:40;6.32;;;3.65;;
37459;SDS011;23318;50.966;5.284;2023-04-19T11:45:06;7.43;;;3.80;;
37459;SDS011;23318;50.966;5.284;2023-04-19T11:47:33;7.78;;;3.20;;
37459;SDS011;23318;50.966;5.284;2023-04-19T11:53:19;7.70;;;3.40;;
37459;SDS011;23318;50.966;5.284;2023-04-19T11:55:56;7.07;;;3.20;;
37459;SDS011;23318;50.966;5.284;2023-04-19T12:01:01;6.78;;;2.95;;
37459;SDS011;23318;50.966;5.284;2023-04-19T12:03:28;6.65;;;2.67;;
37459;SDS011;23318;50.966;5.284;2023-04-19T12:05:54;10.07;;;3.25;;
37459;SDS011;23318;50.966;5.284;2023-04-19T12:08:36;5.10;;;2.53;;
37459;SDS011;23318;50.966;5.284;2023-04-19T12:11:04;5.73;;;2.60;;
37459;SDS011;23318;50.966;5.284;2023-04-19T12:13:31;6.47;;;2.53;;
37459;SDS011;23318;50.966;5.284;2023-04-19T12:15:57;10.23;;;3.13;;
37459;SDS011;23318;50.966;5.284;2023-04-19T12:18:24;6.90;;;2.50;;
37459;SDS011;23318;50.966;5.284;2023-04-19T12:20:51;15.50;;;3.05;;
37459;SDS011;23318;50.966;5.284;2023-04-19T12:23:17;6.95;;;2.33;;
37459;SDS011;23318;50.966;5.284;2023-04-19T12:25:46;3.08;;;2.17;;
37459;SDS011;23318;50.966;5.284;2023-04-19T12:28:12;9.60;;;2.75;;
37459;SDS011;23318;50.966;5.284;2023-04-19T12:30:39;4.00;;;2.40;;
37459;SDS011;23318;50.966;5.284;2023-04-19T12:33:05;5.90;;;2.42;;
37459;SDS011;23318;50.966;5.284;2023-04-19T12:35:32;6.82;;;2.75;;
37459;SDS011;23318;50.966;5.284;2023-04-19T12:37:58;6.90;;;1.88;;
37459;SDS011;23318;50.966;5.284;2023-04-19T12:40:24;5.43;;;2.13;;
37459;SDS011;23318;50.966;5.284;2023-04-19T12:42:52;3.58;;;2.20;;
37459;SDS011;23318;50.966;5.284;2023-04-19T12:45:18;11.35;;;2.00;;
37459;SDS011;23318;50.966;5.284;2023-04-19T12:47:44;3.15;;;1.83;;
37459;SDS011;23318;50.966;5.284;2023-04-19T12:50:11;6.82;;;2.50;;
37459;SDS011;23318;50.966;5.284;2023-04-19T12:52:38;4.57;;;2.20;;
37459;SDS011;23318;50.966;5.284;2023-04-19T12:55:04;13.98;;;2.40;;
37459;SDS011;23318;50.966;5.284;2023-04-19T12:57:31;9.15;;;2.15;;
37459;SDS011;23318;50.966;5.284;2023-04-19T12:59:56;5.50;;;2.22;;
37459;SDS011;23318;50.966;5.284;2023-04-19T13:02:22;5.25;;;1.83;;
37459;SDS011;23318;50.966;5.284;2023-04-19T13:04:48;8.32;;;1.83;;
37459;SDS011;23318;50.966;5.284;2023-04-19T13:07:14;4.38;;;2.45;;
37459;SDS011;23318;50.966;5.284;2023-04-19T13:09:40;3.80;;;2.25;;
37459;SDS011;23318;50.966;5.284;2023-04-19T13:12:06;3.38;;;1.65;;
37459;SDS011;23318;50.966;5.284;2023-04-19T13:14:31;5.28;;;2.33;;
37459;SDS011;23318;50.966;5.284;2023-04-19T13:16:57;4.45;;;1.88;;
37459;SDS011;23318;50.966;5.284;2023-04-19T13:19:23;6.65;;;2.17;;
37459;SDS011;23318;50.966;5.284;2023-04-19T13:21:49;6.30;;;1.85;;
37459;SDS011;23318;50.966;5.284;2023-04-19T13:24:15;10.82;;;2.13;;
37459;SDS011;23318;50.966;5.284;2023-04-19T13:26:40;4.63;;;1.95;;
37459;SDS011;23318;50.966;5.284;2023-04-19T13:29:06;3.70;;;1.92;;
37459;SDS011;23318;50.966;5.284;2023-04-19T13:31:35;5.30;;;1.92;;
37459;SDS011;23318;50.966;5.284;2023-04-19T13:34:00;8.00;;;2.35;;
37459;SDS011;23318;50.966;5.284;2023-04-19T13:36:26;4.57;;;1.73;;
37459;SDS011;23318;50.966;5.284;2023-04-19T13:38:52;4.40;;;2.03;;
37459;SDS011;23318;50.966;5.284;2023-04-19T13:41:18;7.03;;;1.88;;
37459;SDS011;23318;50.966;5.284;2023-04-19T13:43:44;6.30;;;2.63;;
37459;SDS011;23318;50.966;5.284;2023-04-19T13:46:10;10.65;;;2.10;;
37459;SDS011;23318;50.966;5.284;2023-04-19T13:48:36;3.55;;;2.00;;
37459;SDS011;23318;50.966;5.284;2023-04-19T13:51:02;5.25;;;1.80;;
37459;SDS011;23318;50.966;5.284;2023-04-19T13:53:28;4.05;;;1.52;;
37459;SDS011;23318;50.966;5.284;2023-04-19T13:55:54;4.25;;;1.60;;
37459;SDS011;23318;50.966;5.284;2023-04-19T13:58:20;3.20;;;1.85;;
37459;SDS011;23318;50.966;5.284;2023-04-19T14:00:48;4.68;;;1.80;;
37459;SDS011;23318;50.966;5.284;2023-04-19T14:03:15;5.20;;;2.30;;
37459;SDS011;23318;50.966;5.284;2023-04-19T14:05:41;5.18;;;1.58;;
37459;SDS011;23318;50.966;5.284;2023-04-19T14:08:07;4.15;;;2.35;;
37459;SDS011;23318;50.966;5.284;2023-04-19T14:10:34;6.20;;;2.05;;
37459;SDS011;23318;50.966;5.284;2023-04-19T14:13:00;3.72;;;1.95;;
37459;SDS011;23318;50.966;5.284;2023-04-19T14:15:26;8.55;;;2.50;;
37459;SDS011;23318;50.966;5.284;2023-04-19T14:17:51;9.50;;;2.50;;
37459;SDS011;23318;50.966;5.284;2023-04-19T14:20:17;5.38;;;2.30;;
37459;SDS011;23318;50.966;5.284;2023-04-19T14:22:44;13.88;;;2.58;;
37459;SDS011;23318;50.966;5.284;2023-04-19T14:25:10;11.10;;;2.55;;
37459;SDS011;23318;50.966;5.284;2023-04-19T14:27:36;4.32;;;2.22;;
37459;SDS011;23318;50.966;5.284;2023-04-19T14:30:02;12.10;;;2.78;;
37459;SDS011;23318;50.966;5.284;2023-04-19T14:32:30;3.72;;;2.17;;
37459;SDS011;23318;50.966;5.284;2023-04-19T14:34:56;4.75;;;2.45;;
37459;SDS011;23318;50.966;5.284;2023-04-19T14:37:22;4.43;;;2.10;;
37459;SDS011;23318;50.966;5.284;2023-04-19T14:39:48;7.75;;;2.22;;
37459;SDS011;23318;50.966;5.284;2023-04-19T14:42:14;6.20;;;2.10;;
37459;SDS011;23318;50.966;5.284;2023-04-19T14:44:39;8.45;;;2.20;;
37459;SDS011;23318;50.966;5.284;2023-04-19T14:47:05;9.02;;;2.30;;
37459;SDS011;23318;50.966;5.284;2023-04-19T14:49:31;5.82;;;2.35;;
37459;SDS011;23318;50.966;5.284;2023-04-19T14:51:57;8.60;;;3.38;;
37459;SDS011;23318;50.966;5.284;2023-04-19T14:54:23;5.32;;;2.30;;